Time;durP1;ratioP1;P1;durP2;ratioP2;P2;SDS_P1;SDS_P2;PMS_P1;PMS_P2;Temp;Humidity;BMP_temperature;BMP_pressure;BME280_temperature;BME280_humidity;BME280_pressure;Samples;Min_cycle;Max_cycle;Signal;HPM_P1;HPM_P2
2021/05/03 00:00:32;;;;;;;15.30;9.00;;;5.30;99.90;;;;;;4452314;28;656792;-72
2021/05/03 00:03:20;;;;;;;18.60;9.17;;;5.30;99.90;;;;;;4453018;28;656445;-72
2021/05/03 00:06:07;;;;;;;14.10;8.93;;;5.40;99.90;;;;;;4435004;28;656985;-72
2021/05/03 00:08:54;;;;;;;15.77;9.37;;;5.40;99.90;;;;;;4460575;28;656276;-72
2021/05/03 00:11:41;;;;;;;17.52;10.73;;;5.40;99.90;;;;;;4455148;28;656749;-72
2021/05/03 00:14:28;;;;;;;16.13;9.77;;;5.40;99.90;;;;;;4434741;28;657989;-72
2021/05/03 00:17:15;;;;;;;17.33;10.27;;;5.30;99.90;;;;;;4462196;28;657109;-71
2021/05/03 00:20:04;;;;;;;22.42;11.43;;;5.30;99.90;;;;;;4427621;28;657708;-72
2021/05/03 00:22:51;;;;;;;19.87;10.67;;;5.40;99.90;;;;;;4463407;28;657483;-72
2021/05/03 00:25:38;;;;;;;14.53;7.83;;;5.40;99.90;;;;;;4435494;28;658415;-71
2021/05/03 00:28:25;;;;;;;15.53;9.40;;;5.30;99.90;;;;;;4463087;28;656775;-71
2021/05/03 00:31:12;;;;;;;19.80;10.65;;;5.30;99.90;;;;;;4450690;28;656726;-72
2021/05/03 00:33:59;;;;;;;18.08;11.52;;;5.40;99.90;;;;;;4467531;28;657399;-72
2021/05/03 00:36:47;;;;;;;23.10;12.75;;;5.40;99.90;;;;;;4456368;28;657187;-72
2021/05/03 00:39:34;;;;;;;18.90;11.57;;;5.40;99.90;;;;;;4426593;28;659114;-72
2021/05/03 00:42:21;;;;;;;25.27;11.90;;;5.40;99.90;;;;;;4458546;28;657564;-72
2021/05/03 00:45:09;;;;;;;23.63;12.80;;;5.30;99.90;;;;;;4432551;28;658267;-72
2021/05/03 00:47:56;;;;;;;23.00;12.33;;;5.30;99.90;;;;;;4453176;28;658696;-72
2021/05/03 00:50:43;;;;;;;20.70;11.50;;;5.30;99.90;;;;;;4435415;28;657837;-70
2021/05/03 00:53:31;;;;;;;23.40;11.07;;;5.30;99.90;;;;;;4460120;28;658513;-71
2021/05/03 00:56:18;;;;;;;21.03;12.70;;;5.20;99.90;;;;;;4437894;28;657962;-71
2021/05/03 00:59:05;;;;;;;21.20;12.47;;;5.20;99.90;;;;;;4460973;28;657964;-71
2021/05/03 01:01:52;;;;;;;19.97;12.53;;;5.20;99.90;;;;;;4439021;28;657716;-71
2021/05/03 01:04:40;;;;;;;21.60;12.10;;;5.20;99.90;;;;;;4459257;28;658073;-71
2021/05/03 01:07:27;;;;;;;19.27;11.97;;;5.10;99.90;;;;;;4434688;28;657773;-71
2021/05/03 01:10:15;;;;;;;20.50;12.80;;;5.10;99.90;;;;;;4455702;28;658031;-71
2021/05/03 01:13:02;;;;;;;19.13;11.83;;;5.10;99.90;;;;;;4427190;28;661795;-71
2021/05/03 01:15:49;;;;;;;20.27;11.70;;;5.10;99.90;;;;;;4457884;28;657803;-71
2021/05/03 01:18:37;;;;;;;18.40;10.97;;;5.00;99.90;;;;;;4459848;28;657690;-71
2021/05/03 01:21:25;;;;;;;17.27;10.37;;;5.00;99.90;;;;;;4446832;28;658586;-71
2021/05/03 01:24:12;;;;;;;19.00;11.27;;;5.00;99.90;;;;;;4434249;28;658600;-72
2021/05/03 01:26:59;;;;;;;19.47;10.40;;;4.90;99.90;;;;;;4453442;28;658235;-72
2021/05/03 01:29:46;;;;;;;16.47;10.00;;;5.00;99.90;;;;;;4467476;28;657616;-71
2021/05/03 01:32:34;;;;;;;19.77;11.43;;;5.00;99.90;;;;;;4425966;28;659027;-72
2021/05/03 01:35:21;;;;;;;14.03;8.97;;;5.00;99.90;;;;;;4455618;28;657460;-72
2021/05/03 01:38:09;;;;;;;20.90;11.53;;;5.00;99.90;;;;;;4438894;28;656665;-71
2021/05/03 01:40:56;;;;;;;22.93;10.20;;;5.00;99.90;;;;;;4456865;28;658074;-71
2021/05/03 01:43:43;;;;;;;22.47;12.17;;;5.00;99.90;;;;;;4446103;28;657976;-71
2021/05/03 01:46:29;;;;;;;20.87;11.37;;;5.00;99.90;;;;;;4456607;28;657988;-71
2021/05/03 01:49:16;;;;;;;21.77;12.47;;;5.00;99.90;;;;;;4457420;28;657494;-71
2021/05/03 01:52:04;;;;;;;19.80;11.70;;;5.00;99.90;;;;;;4426034;28;658341;-71
2021/05/03 01:54:52;;;;;;;22.57;12.67;;;5.00;99.90;;;;;;4464473;28;658361;-72
2021/05/03 01:57:39;;;;;;;18.23;12.57;;;5.00;99.90;;;;;;4434031;28;657445;-71
2021/05/03 02:00:26;;;;;;;18.53;10.00;;;5.00;99.90;;;;;;4449093;28;657370;-71
2021/05/03 02:03:19;;;;;;;15.20;9.63;;;5.00;99.90;;;;;;4441545;28;657604;-72
2021/05/03 02:06:07;;;;;;;11.70;7.77;;;5.00;99.90;;;;;;4447063;28;656011;-72
2021/05/03 02:08:54;;;;;;;17.43;10.60;;;5.00;99.90;;;;;;4432815;28;657392;-72
2021/05/03 02:11:42;;;;;;;13.93;7.40;;;5.00;99.90;;;;;;4452644;28;656721;-71
2021/05/03 02:14:29;;;;;;;11.27;7.70;;;5.00;99.90;;;;;;4438437;28;657242;-72
2021/05/03 02:17:16;;;;;;;12.77;8.17;;;5.00;99.90;;;;;;4461260;28;656823;-71
2021/05/03 02:20:03;;;;;;;12.50;8.47;;;5.00;99.90;;;;;;4446783;28;656681;-72
2021/05/03 02:22:50;;;;;;;11.90;7.67;;;5.10;99.90;;;;;;4458232;28;657076;-72
2021/05/03 02:25:37;;;;;;;11.40;7.77;;;5.10;99.90;;;;;;4451775;28;656653;-74
2021/05/03 02:28:25;;;;;;;11.73;7.77;;;5.10;99.90;;;;;;4458640;28;656369;-74
2021/05/03 02:31:12;;;;;;;11.33;7.00;;;5.00;99.90;;;;;;4429580;28;656740;-74
2021/05/03 02:33:59;;;;;;;9.67;6.37;;;5.10;99.90;;;;;;4458032;28;657469;-74
2021/05/03 02:36:46;;;;;;;12.17;7.53;;;5.00;99.90;;;;;;4460459;28;655980;-71
2021/05/03 02:39:34;;;;;;;11.70;6.90;;;5.00;99.90;;;;;;4434382;28;656666;-71
2021/05/03 02:42:21;;;;;;;8.27;5.63;;;5.10;99.90;;;;;;4449447;28;657169;-72
2021/05/03 02:45:09;;;;;;;11.17;7.40;;;5.00;99.90;;;;;;4443789;28;655340;-72
2021/05/03 02:47:57;;;;;;;10.63;7.50;;;5.10;99.90;;;;;;4454175;28;656396;-72
2021/05/03 02:50:43;;;;;;;11.80;7.73;;;5.10;99.90;;;;;;4438157;28;656406;-71
2021/05/03 02:53:31;;;;;;;8.10;4.80;;;5.10;99.90;;;;;;4469873;28;657361;-72
2021/05/03 02:56:18;;;;;;;14.70;9.47;;;5.10;99.90;;;;;;4432200;28;655930;-72
2021/05/03 02:59:05;;;;;;;16.37;9.67;;;5.10;99.90;;;;;;4457722;28;657335;-71
2021/05/03 03:01:53;;;;;;;15.20;9.70;;;5.10;99.90;;;;;;4453270;28;656702;-71
2021/05/03 03:04:40;;;;;;;15.73;8.83;;;5.10;99.90;;;;;;4450148;28;656584;-71
2021/05/03 03:07:27;;;;;;;16.50;9.83;;;5.10;99.90;;;;;;4441317;28;656229;-73
2021/05/03 03:10:14;;;;;;;15.70;9.80;;;5.10;99.90;;;;;;4461211;28;657031;-71
2021/05/03 03:13:03;;;;;;;16.37;9.77;;;5.10;99.90;;;;;;4454080;28;656295;-72
2021/05/03 03:15:50;;;;;;;12.47;8.50;;;5.20;99.90;;;;;;4437606;28;656742;-72
2021/05/03 03:18:38;;;;;;;13.37;7.90;;;5.20;99.90;;;;;;4430689;28;656868;-72
2021/05/03 03:21:25;;;;;;;18.87;10.23;;;5.20;99.90;;;;;;4452918;28;657880;-72
2021/05/03 03:24:13;;;;;;;10.93;6.33;;;5.30;99.90;;;;;;4435855;28;657799;-72
2021/05/03 03:27:00;;;;;;;14.93;9.03;;;5.20;99.90;;;;;;4460731;28;658386;-71
2021/05/03 03:29:47;;;;;;;15.97;9.30;;;5.30;99.90;;;;;;4449769;28;657024;-71
2021/05/03 03:32:34;;;;;;;14.47;9.00;;;5.30;99.90;;;;;;4464617;28;657424;-71
2021/05/03 03:35:24;;;;;;;14.73;9.43;;;5.30;99.90;;;;;;4461985;28;656792;-72
2021/05/03 03:38:11;;;;;;;14.73;8.63;;;5.30;99.90;;;;;;4440404;28;657333;-71
2021/05/03 03:40:58;;;;;;;13.70;8.32;;;5.30;99.90;;;;;;4431150;28;656570;-71
2021/05/03 03:43:45;;;;;;;12.30;7.67;;;5.40;99.90;;;;;;4460242;28;656215;-72
2021/05/03 03:46:32;;;;;;;13.13;7.37;;;5.40;99.90;;;;;;4431704;28;657133;-71
2021/05/03 03:49:19;;;;;;;13.10;6.47;;;5.40;99.90;;;;;;4468839;28;657379;-72
2021/05/03 03:52:07;;;;;;;11.27;6.83;;;5.40;99.90;;;;;;4448873;28;656838;-71
2021/05/03 03:54:54;;;;;;;10.80;6.73;;;5.40;99.90;;;;;;4437786;28;657003;-72
2021/05/03 03:57:41;;;;;;;10.90;6.97;;;5.40;99.90;;;;;;4454466;28;657604;-72
2021/05/03 04:00:29;;;;;;;13.40;7.13;;;5.40;99.90;;;;;;4435360;28;656289;-72
2021/05/03 04:03:16;;;;;;;12.47;6.97;;;5.50;99.90;;;;;;4456150;28;656552;-71
2021/05/03 04:06:17;;;;;;;11.00;7.00;;;5.40;99.90;;;;;;4438687;28;656809;-71
2021/05/03 04:09:09;;;;;;;9.47;5.40;;;5.50;99.90;;;;;;4425759;28;657116;-71
2021/05/03 04:12:29;;;;;;;10.33;6.30;;;5.50;99.90;;;;;;4438213;28;655658;-72
2021/05/03 04:21:32;;;;;;;9.50;5.73;;;5.50;99.90;;;;;;4447069;28;655363;-71
2021/05/03 04:24:23;;;;;;;11.90;5.87;;;5.60;99.90;;;;;;4405594;28;656022;-71
2021/05/03 04:27:10;;;;;;;9.23;5.53;;;5.60;99.90;;;;;;4429457;28;657537;-71
2021/05/03 04:29:57;;;;;;;11.60;5.40;;;5.60;99.90;;;;;;4448211;28;655151;-71
2021/05/03 04:32:44;;;;;;;8.98;6.05;;;5.70;99.90;;;;;;4465317;28;656944;-71
2021/05/03 04:35:31;;;;;;;10.13;6.27;;;5.70;99.90;;;;;;4458950;28;655734;-71
2021/05/03 04:38:18;;;;;;;7.73;5.13;;;5.70;99.90;;;;;;4438494;28;657013;-72
2021/05/03 04:41:06;;;;;;;9.13;5.33;;;5.70;99.90;;;;;;4452627;28;656139;-72
2021/05/03 04:43:53;;;;;;;8.33;5.23;;;5.80;99.90;;;;;;4442516;28;655766;-73
2021/05/03 04:46:40;;;;;;;9.93;5.47;;;5.80;99.90;;;;;;4457046;28;656176;-72
2021/05/03 04:49:28;;;;;;;9.70;5.33;;;5.80;99.90;;;;;;4436594;28;655507;-72
2021/05/03 04:52:15;;;;;;;11.27;6.37;;;5.80;99.90;;;;;;4451920;28;655808;-71
2021/05/03 04:55:02;;;;;;;9.47;5.60;;;5.90;99.90;;;;;;4456749;28;656268;-74
2021/05/03 04:57:49;;;;;;;9.10;5.13;;;5.90;99.90;;;;;;4432899;28;656460;-71
2021/05/03 05:00:36;;;;;;;9.10;5.43;;;5.90;99.90;;;;;;4468139;28;655203;-71
2021/05/03 05:03:23;;;;;;;9.37;6.50;;;5.80;99.90;;;;;;4437806;28;655736;-72
2021/05/03 05:06:10;;;;;;;8.07;5.07;;;5.80;99.90;;;;;;4455875;28;656205;-71
2021/05/03 05:08:57;;;;;;;8.83;5.90;;;5.80;99.90;;;;;;4441918;28;656274;-71
2021/05/03 05:11:44;;;;;;;11.10;6.77;;;5.80;99.90;;;;;;4470943;28;655161;-71
2021/05/03 05:14:32;;;;;;;11.93;6.33;;;5.90;99.90;;;;;;4456445;28;656375;-71
2021/05/03 05:17:19;;;;;;;11.23;5.70;;;5.80;99.90;;;;;;4441336;28;657449;-71
2021/05/03 05:20:07;;;;;;;8.93;4.83;;;5.90;99.90;;;;;;4452820;28;657064;-71
2021/05/03 05:22:54;;;;;;;10.27;4.93;;;5.90;99.90;;;;;;4429941;28;655955;-72
2021/05/03 05:25:41;;;;;;;8.73;4.80;;;5.80;99.90;;;;;;4453796;28;656244;-72
2021/05/03 05:28:28;;;;;;;6.23;4.33;;;5.90;99.90;;;;;;4437092;28;655594;-71
2021/05/03 05:31:16;;;;;;;9.83;5.63;;;5.80;99.90;;;;;;4461827;28;656126;-71
2021/05/03 05:34:03;;;;;;;10.50;6.50;;;5.80;99.90;;;;;;4441979;28;655831;-71
2021/05/03 05:36:50;;;;;;;10.67;5.70;;;5.80;99.90;;;;;;4462327;28;657942;-71
2021/05/03 05:39:37;;;;;;;9.73;5.37;;;5.90;99.90;;;;;;4453304;28;656736;-71
2021/05/03 05:42:24;;;;;;;7.17;4.80;;;6.00;99.90;;;;;;4467588;28;655812;-71
2021/05/03 05:45:12;;;;;;;5.77;3.93;;;6.00;99.90;;;;;;4464502;28;655307;-71
2021/05/03 05:48:00;;;;;;;6.43;4.63;;;6.00;99.90;;;;;;4440732;28;656387;-72
2021/05/03 05:50:47;;;;;;;4.37;3.13;;;6.10;99.90;;;;;;4445406;28;655523;-74
2021/05/03 05:53:35;;;;;;;5.20;3.33;;;6.10;99.90;;;;;;4463432;28;656347;-74
2021/05/03 05:56:22;;;;;;;5.40;2.97;;;6.10;99.90;;;;;;4458690;28;656056;-71
2021/05/03 05:59:09;;;;;;;6.93;3.03;;;6.20;99.90;;;;;;4466489;28;655413;-71
2021/05/03 06:01:56;;;;;;;6.70;3.73;;;6.20;99.90;;;;;;4464424;28;655183;-72
2021/05/03 06:04:44;;;;;;;8.70;3.23;;;6.20;99.90;;;;;;4439386;28;655724;-72
2021/05/03 06:07:31;;;;;;;5.43;3.67;;;6.20;99.90;;;;;;4461603;28;655671;-72
2021/05/03 06:10:18;;;;;;;6.93;3.30;;;6.20;99.90;;;;;;4446321;28;656979;-75
2021/05/03 06:13:05;;;;;;;6.83;3.17;;;6.20;99.90;;;;;;4468653;28;656255;-74
2021/05/03 06:15:52;;;;;;;5.75;3.17;;;6.20;99.90;;;;;;4444398;28;655827;-70
2021/05/03 06:18:39;;;;;;;10.38;3.72;;;6.20;99.90;;;;;;4465231;28;655729;-74
2021/05/03 06:21:27;;;;;;;9.13;4.27;;;6.20;99.90;;;;;;4451443;28;656401;-74
2021/05/03 06:24:14;;;;;;;9.70;3.87;;;6.20;99.90;;;;;;4440411;28;655959;-75
2021/05/03 06:27:01;;;;;;;6.50;3.30;;;6.30;99.90;;;;;;4466101;28;655651;-73
2021/05/03 06:29:48;;;;;;;7.30;3.13;;;6.30;99.90;;;;;;4438111;28;655454;-73
2021/05/03 06:32:35;;;;;;;7.22;4.00;;;6.30;99.90;;;;;;4454483;28;656140;-75
2021/05/03 06:35:22;;;;;;;7.57;3.53;;;6.30;99.90;;;;;;4444641;28;656016;-70
2021/05/03 06:38:10;;;;;;;7.90;4.13;;;6.30;99.90;;;;;;4462162;28;655720;-73
2021/05/03 06:40:57;;;;;;;7.03;3.47;;;6.30;99.90;;;;;;4431571;28;655410;-72
2021/05/03 06:43:44;;;;;;;5.17;3.73;;;6.20;99.90;;;;;;4461747;28;655387;-72
2021/05/03 06:46:31;;;;;;;6.83;3.97;;;6.20;99.90;;;;;;4463064;28;655588;-75
2021/05/03 06:49:18;;;;;;;5.70;4.10;;;6.10;99.90;;;;;;4432515;28;655399;-75
2021/05/03 06:52:05;;;;;;;4.87;3.50;;;6.10;99.90;;;;;;4454083;28;656549;-73
2021/05/03 06:54:53;;;;;;;9.43;3.50;;;6.10;99.90;;;;;;4431421;28;655464;-71
2021/05/03 06:57:40;;;;;;;6.38;3.80;;;6.10;99.90;;;;;;4450443;28;656148;-75
2021/05/03 07:00:27;;;;;;;5.47;3.50;;;6.10;99.90;;;;;;4431273;28;656043;-72
2021/05/03 07:03:14;;;;;;;5.30;3.17;;;6.10;99.90;;;;;;4450112;28;655506;-74
2021/05/03 07:06:01;;;;;;;7.20;3.60;;;6.10;99.90;;;;;;4450203;28;655296;-73
2021/05/03 07:08:49;;;;;;;4.63;3.13;;;6.20;99.90;;;;;;4431532;28;655318;-75
2021/05/03 07:11:37;;;;;;;4.87;3.33;;;6.20;99.90;;;;;;4459026;28;655613;-75
2021/05/03 07:14:24;;;;;;;7.80;3.27;;;6.10;99.90;;;;;;4456885;27;655784;-75
2021/05/03 07:17:11;;;;;;;7.90;3.70;;;6.10;99.90;;;;;;4459867;27;655300;-73
2021/05/03 07:20:00;;;;;;;6.77;3.87;;;6.10;99.90;;;;;;4431271;28;655876;-73
2021/05/03 07:22:47;;;;;;;6.43;3.83;;;6.10;99.90;;;;;;4443302;28;655877;-72
2021/05/03 07:25:34;;;;;;;6.70;3.33;;;6.10;99.90;;;;;;4460151;28;656214;-74
2021/05/03 07:28:22;;;;;;;6.40;3.53;;;6.00;99.90;;;;;;4459758;28;656071;-74
2021/05/03 07:31:09;;;;;;;8.63;3.60;;;6.00;99.90;;;;;;4433405;28;655991;-74
2021/05/03 07:33:56;;;;;;;6.90;3.90;;;6.00;99.90;;;;;;4450093;28;655164;-73
2021/05/03 07:36:43;;;;;;;5.37;3.60;;;6.10;99.90;;;;;;4444568;28;655472;-72
2021/05/03 07:39:30;;;;;;;7.27;3.87;;;6.10;99.90;;;;;;4451534;28;656220;-72
2021/05/03 07:42:17;;;;;;;9.00;3.87;;;6.20;99.90;;;;;;4426705;28;655849;-71
2021/05/03 07:45:06;;;;;;;7.63;4.10;;;6.30;99.90;;;;;;4464458;28;655550;-74
2021/05/03 07:47:53;;;;;;;8.63;3.90;;;6.40;99.90;;;;;;4441427;28;656990;-74
2021/05/03 07:50:41;;;;;;;6.37;3.97;;;6.50;99.90;;;;;;4458379;28;656789;-73
2021/05/03 07:53:28;;;;;;;7.35;3.45;;;6.60;99.90;;;;;;4443773;28;655361;-74
2021/05/03 07:56:16;;;;;;;7.77;3.83;;;6.70;99.90;;;;;;4457356;28;656588;-75
2021/05/03 07:59:03;;;;;;;6.00;3.20;;;6.70;99.90;;;;;;4438688;28;655948;-73
2021/05/03 08:01:51;;;;;;;7.97;3.10;;;6.80;99.90;;;;;;4459015;28;655928;-74
2021/05/03 08:04:38;;;;;;;5.67;3.40;;;6.80;99.90;;;;;;4440209;28;655639;-73
2021/05/03 08:07:51;;;;;;;5.50;3.40;;;6.80;99.90;;;;;;4454448;28;656710;-74
2021/05/03 08:10:38;;;;;;;8.60;3.30;;;6.80;99.90;;;;;;4435706;28;655413;-73
2021/05/03 08:13:27;;;;;;;6.20;3.57;;;6.80;99.90;;;;;;4453598;28;656295;-72
2021/05/03 08:16:15;;;;;;;9.70;3.53;;;7.00;99.90;;;;;;4438993;28;656236;-75
2021/05/03 08:19:03;;;;;;;6.18;2.88;;;7.10;99.90;;;;;;4440571;28;655312;-71
2021/05/03 08:21:50;;;;;;;8.33;2.90;;;7.20;99.90;;;;;;4460878;28;655160;-72
2021/05/03 08:24:37;;;;;;;6.50;2.60;;;7.50;99.90;;;;;;4437198;28;655558;-72
2021/05/03 08:27:24;;;;;;;5.20;2.10;;;7.90;99.90;;;;;;4461012;28;655827;-72
2021/05/03 08:30:13;;;;;;;3.17;2.00;;;7.90;99.90;;;;;;4462275;28;656193;-73
2021/05/03 08:32:59;;;;;;;4.73;2.20;;;7.70;99.90;;;;;;4437969;28;655858;-74
2021/05/03 08:35:48;;;;;;;4.50;2.60;;;7.60;99.90;;;;;;4457560;28;655932;-73
2021/05/03 08:38:35;;;;;;;4.03;2.10;;;7.70;99.90;;;;;;4429900;28;656215;-72
2021/05/03 08:41:22;;;;;;;4.47;2.00;;;7.90;99.90;;;;;;4461078;28;655160;-73
2021/05/03 08:44:08;;;;;;;5.20;2.53;;;7.90;99.90;;;;;;4454956;27;655870;-74
2021/05/03 08:46:56;;;;;;;3.87;2.40;;;7.70;99.90;;;;;;4457447;28;655555;-74
2021/05/03 08:49:51;;;;;;;4.87;2.63;;;7.70;99.90;;;;;;4433950;28;655481;-73
2021/05/03 08:52:43;;;;;;;3.13;2.10;;;7.40;99.90;;;;;;4413860;28;655806;-74
2021/05/03 08:55:30;;;;;;;7.03;2.97;;;7.20;99.90;;;;;;4442324;28;656003;-75
2021/05/03 08:58:17;;;;;;;5.47;2.97;;;7.10;99.90;;;;;;4452599;28;655544;-73
2021/05/03 09:01:04;;;;;;;7.83;2.87;;;7.30;99.90;;;;;;4444716;28;655438;-75
2021/05/03 09:03:52;;;;;;;3.27;1.90;;;7.50;99.90;;;;;;4459706;28;655983;-72
2021/05/03 09:06:39;;;;;;;3.27;2.03;;;7.60;99.90;;;;;;4436965;28;656183;-73
2021/05/03 09:09:34;;;;;;;2.83;1.60;;;7.90;99.90;;;;;;4459113;28;655569;-75
2021/05/03 09:12:22;;;;;;;3.20;1.80;;;8.10;99.90;;;;;;4429616;28;656231;-75
2021/05/03 09:15:10;;;;;;;3.43;1.90;;;8.40;99.90;;;;;;4434537;28;656018;-74
2021/05/03 09:17:56;;;;;;;5.83;2.17;;;8.50;99.90;;;;;;4461336;28;655730;-70
2021/05/03 09:20:44;;;;;;;3.63;2.00;;;8.30;99.90;;;;;;4449112;28;655075;-70
2021/05/03 09:23:31;;;;;;;3.63;2.37;;;8.10;99.90;;;;;;4453829;28;655428;-71
2021/05/03 09:26:33;;;;;;;3.80;2.10;;;8.10;99.90;;;;;;4446224;28;655643;-69
2021/05/03 09:29:30;;;;;;;5.17;2.20;;;8.10;99.90;;;;;;4437256;28;655459;-71
2021/05/03 09:32:19;;;;;;;3.67;1.73;;;8.30;99.90;;;;;;4411666;28;656060;-70
2021/05/03 09:35:07;;;;;;;2.43;1.50;;;8.60;99.90;;;;;;4451354;28;655354;-75
2021/05/03 09:37:54;;;;;;;5.70;2.30;;;8.80;99.90;;;;;;4436671;28;655787;-74
2021/05/03 09:40:40;;;;;;;6.07;2.07;;;8.60;99.90;;;;;;4465141;28;656105;-74
2021/05/03 09:43:28;;;;;;;4.83;2.07;;;8.50;99.90;;;;;;4433185;28;656082;-73
2021/05/03 09:46:26;;;;;;;2.63;1.93;;;8.40;99.90;;;;;;4456804;28;655993;-73
2021/05/03 09:49:15;;;;;;;2.83;1.60;;;9.00;99.90;;;;;;4426434;28;655539;-74
2021/05/03 09:52:03;;;;;;;5.47;2.37;;;9.30;99.90;;;;;;4453008;28;655483;-71
2021/05/03 09:54:50;;;;;;;3.07;2.00;;;9.10;99.90;;;;;;4460376;28;656762;-76
2021/05/03 09:57:37;;;;;;;3.67;1.93;;;8.60;99.90;;;;;;4462511;28;655374;-69
2021/05/03 10:00:36;;;;;;;4.53;2.03;;;8.40;99.90;;;;;;4457614;28;655357;-75
2021/05/03 10:03:31;;;;;;;6.50;2.30;;;8.30;99.90;;;;;;4441663;28;655738;-73
2021/05/03 10:06:20;;;;;;;7.78;2.40;;;8.60;99.90;;;;;;4433161;28;655532;-74
2021/05/03 10:09:07;;;;;;;4.75;1.95;;;8.80;99.90;;;;;;4436686;28;655370;-73
2021/05/03 10:11:54;;;;;;;4.40;2.03;;;9.60;99.90;;;;;;4469157;28;655882;-74
2021/05/03 10:14:41;;;;;;;3.83;1.80;;;10.10;99.90;;;;;;4452776;28;655225;-73
2021/05/03 10:17:30;;;;;;;5.27;1.63;;;10.70;99.90;;;;;;4443089;28;656530;-73
2021/05/03 10:20:19;;;;;;;3.20;1.70;;;10.60;99.90;;;;;;4450174;28;656856;-73
2021/05/03 10:23:07;;;;;;;4.77;1.60;;;10.40;99.90;;;;;;4441954;28;656633;-74
2021/05/03 10:25:58;;;;;;;4.83;1.70;;;10.20;99.90;;;;;;4427443;28;657570;-75
2021/05/03 10:28:50;;;;;;;2.10;1.27;;;10.10;99.90;;;;;;4435811;28;656691;-71
2021/05/03 10:31:58;;;;;;;2.70;1.40;;;10.30;99.90;;;;;;4436743;28;657057;-72
2021/05/03 10:34:48;;;;;;;2.63;1.50;;;10.20;99.90;;;;;;4435524;28;657196;-74
2021/05/03 10:37:43;;;;;;;4.63;1.27;;;10.20;99.50;;;;;;4433602;28;657959;-73
2021/05/03 10:40:52;;;;;;;3.30;1.70;;;10.60;99.60;;;;;;4433485;28;657213;-75
2021/05/03 10:43:41;;;;;;;3.73;1.60;;;10.80;97.70;;;;;;4438474;28;656841;-75
2021/05/03 10:49:47;;;;;;;3.77;1.90;;;10.60;98.60;;;;;;4426906;28;657098;-74
2021/05/03 10:52:37;;;;;;;1.80;1.40;;;11.10;98.20;;;;;;4440211;28;657070;-74
2021/05/03 10:55:35;;;;;;;5.63;1.63;;;11.60;94.70;;;;;;4435534;28;657454;-75
2021/05/03 10:58:22;;;;;;;4.50;2.00;;;11.80;97.70;;;;;;4418221;28;656519;-71
2021/05/03 11:01:11;;;;;;;2.70;1.33;;;12.30;95.60;;;;;;4455072;28;657244;-74
2021/05/03 11:04:07;;;;;;;4.13;2.27;;;11.80;91.20;;;;;;4438440;28;656856;-74
2021/05/03 11:07:08;;;;;;;2.90;1.43;;;11.20;91.80;;;;;;4426500;28;657244;-74
2021/05/03 11:09:55;;;;;;;4.03;1.83;;;10.60;92.10;;;;;;4439781;28;656626;-73
2021/05/03 11:12:42;;;;;;;5.00;1.97;;;10.10;90.90;;;;;;4438882;28;656416;-71
2021/05/03 11:15:29;;;;;;;2.47;1.60;;;9.60;91.80;;;;;;4462426;28;655927;-75
2021/05/03 11:18:19;;;;;;;5.50;2.00;;;9.50;91.20;;;;;;4463060;28;655523;-73
2021/05/03 11:21:14;;;;;;;4.20;1.97;;;9.50;92.10;;;;;;4436452;28;655494;-73
2021/05/03 11:24:16;;;;;;;3.07;1.70;;;9.80;91.80;;;;;;4426960;28;655626;-76
2021/05/03 11:27:07;;;;;;;4.10;1.63;;;10.30;91.70;;;;;;4412590;28;655809;-74
2021/05/03 11:29:59;;;;;;;2.00;1.47;;;10.20;86.50;;;;;;4429835;28;656780;-76
2021/05/03 11:32:51;;;;;;;3.70;1.60;;;10.20;88.20;;;;;;4426386;28;657016;-75
2021/05/03 11:35:41;;;;;;;3.50;1.60;;;10.20;87.50;;;;;;4432839;28;656713;-75
2021/05/03 11:38:32;;;;;;;3.00;1.70;;;10.10;87.10;;;;;;4447138;28;657173;-76
2021/05/03 11:44:26;;;;;;;3.97;1.70;;;10.30;89.60;;;;;;4425187;28;656596;-73
2021/05/03 11:47:13;;;;;;;4.00;1.87;;;10.50;86.90;;;;;;4445328;28;657295;-73
2021/05/03 11:50:00;;;;;;;3.00;1.70;;;10.50;88.40;;;;;;4467404;28;657480;-74
2021/05/03 11:52:47;;;;;;;3.60;1.70;;;10.40;87.40;;;;;;4456605;28;656588;-72
2021/05/03 11:55:34;;;;;;;2.47;1.47;;;10.20;85.70;;;;;;4460239;28;656519;-74
2021/05/03 11:58:22;;;;;;;4.50;1.70;;;10.10;86.80;;;;;;4457665;28;656298;-76
2021/05/03 12:01:13;;;;;;;3.43;1.87;;;9.70;89.40;;;;;;4437352;28;657170;-74
2021/05/03 12:04:00;;;;;;;3.77;1.80;;;9.50;90.40;;;;;;4440099;28;656416;-74
2021/05/03 12:06:47;;;;;;;3.30;1.70;;;9.50;91.40;;;;;;4459428;28;655622;-72
2021/05/03 12:09:34;;;;;;;4.67;2.10;;;9.90;91.50;;;;;;4463128;28;654861;-76
2021/05/03 12:12:21;;;;;;;2.83;1.93;;;10.20;89.50;;;;;;4458817;28;656286;-75
2021/05/03 12:15:10;;;;;;;3.03;1.93;;;10.40;88.80;;;;;;4437750;28;656597;-76
2021/05/03 12:17:58;;;;;;;6.00;2.90;;;10.30;89.00;;;;;;4443820;28;656567;-73
2021/05/03 12:20:45;;;;;;;5.67;2.20;;;10.30;89.40;;;;;;4461657;28;656835;-74
2021/05/03 12:23:32;;;;;;;3.17;2.07;;;10.10;90.40;;;;;;4438741;28;657298;-71
2021/05/03 12:26:19;;;;;;;4.87;2.30;;;10.30;90.00;;;;;;4460879;28;657297;-76
2021/05/03 12:29:06;;;;;;;4.53;1.80;;;11.00;88.20;;;;;;4453579;28;656240;-71
2021/05/03 12:31:54;;;;;;;5.03;2.50;;;11.10;90.50;;;;;;4430711;28;656934;-75
2021/05/03 12:34:48;;;;;;;4.53;2.47;;;11.00;90.30;;;;;;4455136;28;656137;-77
2021/05/03 12:37:35;;;;;;;5.47;2.47;;;10.80;90.10;;;;;;4433311;28;656613;-76
2021/05/03 12:40:24;;;;;;;5.23;2.30;;;10.20;90.10;;;;;;4433457;28;657009;-70
2021/05/03 12:43:12;;;;;;;3.33;1.97;;;9.90;91.90;;;;;;4456053;28;657080;-75
2021/05/03 12:46:04;;;;;;;4.77;2.63;;;10.10;92.60;;;;;;4446355;28;656029;-72
2021/05/03 12:48:55;;;;;;;4.47;1.93;;;11.00;92.70;;;;;;4437146;28;656384;-72
2021/05/03 12:52:01;;;;;;;9.73;2.03;;;11.70;90.70;;;;;;4413579;28;656433;-74
2021/05/03 12:54:56;;;;;;;4.47;2.13;;;11.80;81.50;;;;;;4437086;28;656624;-73
2021/05/03 12:57:48;;;;;;;3.03;1.83;;;12.30;80.70;;;;;;4432533;28;656520;-75
2021/05/03 13:00:48;;;;;;;6.37;2.57;;;12.00;80.70;;;;;;4429084;28;657565;-74
2021/05/03 13:03:44;;;;;;;5.67;2.50;;;11.60;81.20;;;;;;4434791;28;657040;-74
2021/05/03 13:06:43;;;;;;;4.83;2.30;;;11.20;80.90;;;;;;4433309;28;656718;-73
2021/05/03 13:28:05;;;;;;;4.63;2.40;;;10.80;76.90;;;;;;4377105;28;657411;-74
2021/05/03 13:30:52;;;;;;;3.40;2.00;;;10.60;78.30;;;;;;4420224;28;657142;-70
2021/05/03 13:33:39;;;;;;;4.40;2.33;;;11.10;81.30;;;;;;4467774;28;656736;-74
2021/05/03 13:36:26;;;;;;;4.53;2.40;;;10.90;77.30;;;;;;4451690;28;656085;-74
2021/05/03 13:39:16;;;;;;;5.13;2.20;;;11.30;78.60;;;;;;4432700;28;656769;-74
2021/05/03 13:42:03;;;;;;;5.10;2.10;;;11.40;76.80;;;;;;4431390;28;656268;-73
2021/05/03 13:44:50;;;;;;;7.90;2.37;;;11.40;71.50;;;;;;4450425;28;657247;-76
2021/05/03 13:47:37;;;;;;;8.30;2.30;;;11.30;73.00;;;;;;4461413;28;656646;-71
2021/05/03 13:50:24;;;;;;;3.83;1.83;;;11.70;73.60;;;;;;4454347;28;656508;-76
2021/05/03 13:53:11;;;;;;;4.33;1.93;;;12.30;76.60;;;;;;4465317;28;656417;-72
2021/05/03 13:55:59;;;;;;;4.43;2.10;;;12.80;71.50;;;;;;4430461;28;656409;-71
2021/05/03 14:02:34;;;;;;;4.10;1.77;;;13.30;62.70;;;;;;4381553;28;657020;-71
2021/05/03 14:05:21;;;;;;;3.47;1.70;;;12.10;61.10;;;;;;4454679;28;655984;-71
2021/05/03 14:08:10;;;;;;;2.97;1.80;;;11.50;65.60;;;;;;4427105;28;656421;-72
2021/05/03 14:10:59;;;;;;;4.57;1.70;;;11.50;63.80;;;;;;4439291;28;656974;-71
2021/05/03 14:13:46;;;;;;;3.77;2.10;;;11.10;65.50;;;;;;4452152;28;656437;-75
2021/05/03 14:16:33;;;;;;;4.70;2.50;;;11.00;67.00;;;;;;4440298;28;656614;-72
2021/05/03 14:19:23;;;;;;;5.33;2.00;;;10.90;67.00;;;;;;4460743;28;656765;-73
2021/05/03 14:22:10;;;;;;;6.23;2.23;;;10.90;67.70;;;;;;4433896;28;657268;-76
2021/05/03 14:24:57;;;;;;;3.73;2.00;;;11.30;67.50;;;;;;4449142;28;656865;-71
2021/05/03 14:27:46;;;;;;;4.67;2.50;;;11.80;66.50;;;;;;4463207;28;656815;-71
2021/05/03 14:30:42;;;;;;;4.43;2.07;;;11.80;65.10;;;;;;4436733;28;657020;-73
2021/05/03 14:33:31;;;;;;;3.20;1.70;;;11.30;65.00;;;;;;4412273;28;656483;-71
2021/05/03 14:36:18;;;;;;;5.20;2.30;;;10.70;66.70;;;;;;4435278;28;656446;-75
2021/05/03 14:39:06;;;;;;;5.73;2.10;;;10.60;68.70;;;;;;4453283;28;656682;-75
2021/05/03 14:41:53;;;;;;;4.53;2.13;;;10.20;69.90;;;;;;4430624;28;656583;-74
2021/05/03 14:44:41;;;;;;;5.83;2.23;;;10.20;71.60;;;;;;4450710;28;656578;-73
2021/05/03 14:47:39;;;;;;;4.90;2.33;;;10.30;70.30;;;;;;4433712;28;656995;-70
2021/05/03 14:50:32;;;;;;;4.30;2.37;;;10.70;70.70;;;;;;4426586;28;656496;-75
2021/05/03 14:53:31;;;;;;;3.87;2.23;;;10.70;70.70;;;;;;4433774;28;656815;-74
2021/05/03 14:56:32;;;;;;;2.90;2.10;;;10.60;71.60;;;;;;4413079;28;657126;-74
2021/05/03 14:59:19;;;;;;;3.63;2.30;;;10.60;71.20;;;;;;4427055;28;657553;-75
2021/05/03 15:02:07;;;;;;;3.60;2.30;;;10.50;71.40;;;;;;4455753;28;657181;-72
2021/05/03 15:04:54;;;;;;;5.40;2.00;;;10.50;68.50;;;;;;4436311;28;656884;-76